This is the latest recevied weather packets stored in our database for station/object dl1wer-13. If no packets are shown the sender has not sent any weather packets the latest 10 day(s).
| Time | Temp. | Humidity | Pressure | Rain* | Wind** | Luminosity | Snow |
|---|---|---|---|---|---|---|---|
| 1778160625 | 14.44° C | 65% | 1040.3 hPa | 0 mm | - | - | - |
| 1778160024 | 14.44° C | 68% | 1040.2 hPa | 0 mm | - | - | - |
| 1778159425 | 14.44° C | 72% | 1040.4 hPa | 0.25 mm | - | - | - |
| 1778158824 | 13.89° C | 74% | 1040.4 hPa | 0.25 mm | - | - | - |
| 1778158223 | 13.33° C | 79% | 1040.1 hPa | 0.25 mm | - | - | - |
| 1778157624 | 12.78° C | 83% | 1040.3 hPa | 0.51 mm | - | - | - |
| 1778157024 | 11.67° C | 88% | 1040.4 hPa | 0.51 mm | - | - | - |
| 1778156424 | 11.67° C | 89% | 1040.6 hPa | 1.02 mm | - | - | - |
| 1778155824 | 11.67° C | 90% | 1040.2 hPa | 1.27 mm | - | - | - |
| 1778155224 | 11.11° C | 90% | 1040.4 hPa | 1.27 mm | - | - | - |
| 1778154623 | 11.11° C | 90% | 1040.6 hPa | 1.27 mm | - | - | - |
| 1778154024 | 10.56° C | 89% | 1040.5 hPa | 1.02 mm | - | - | - |
| 1778153424 | 11.11° C | 88% | 1040.8 hPa | 1.02 mm | - | - | - |
| 1778152823 | 11.11° C | 84% | 1040.6 hPa | 0.51 mm | - | - | - |
| 1778152224 | 11.67° C | 78% | 1040.5 hPa | 0 mm | - | - | - |
| 1778151624 | 12.22° C | 73% | 1040.5 hPa | 0 mm | - | - | - |
| 1778151024 | 12.78° C | 70% | 1040.6 hPa | 0 mm | - | - | - |
| 1778150423 | 12.78° C | 73% | 1040.5 hPa | 0 mm | - | - | - |
| 1778149823 | 12.22° C | 78% | 1040.4 hPa | 0 mm | - | - | - |
| 1778149223 | 12.22° C | 78% | 1040.4 hPa | 0 mm | - | - | - |
| 1778148623 | 12.22° C | 83% | 1040.4 hPa | 0 mm | - | - | - |
| 1778148023 | 11.67° C | 84% | 1040.2 hPa | 0 mm | - | - | - |
| 1778147423 | 11.11° C | 83% | 1040.5 hPa | 0 mm | - | - | - |
| 1778146823 | 11.11° C | 83% | 1040.4 hPa | 0 mm | - | - | - |
| 1778146224 | 11.11° C | 82% | 1040.4 hPa | 0 mm | - | - | - |
* Rain latest hour (hover to see other rain measurements)
** Current wind speed in m/s (hover to see current wind gust speed)